createdAt,value
2022-08-03T00:00:56.629Z,96217.88
2022-08-03T00:03:23.948Z,96213.34
2022-08-03T00:06:03.884Z,96218.13
2022-08-03T00:08:32.401Z,96205.84
2022-08-03T00:11:07.763Z,96212.31
2022-08-03T00:13:35.151Z,96212.81
2022-08-03T00:16:04.464Z,96211.97
2022-08-03T00:18:32.366Z,96209.66
2022-08-03T00:21:02.434Z,96214.63
2022-08-03T00:23:50.901Z,96212.31
2022-08-03T00:26:17.683Z,96211.19
2022-08-03T00:28:44.418Z,96215.56
2022-08-03T00:31:13.462Z,96220.88
2022-08-03T00:33:59.673Z,96219.25
2022-08-03T00:36:27.980Z,96216.59
2022-08-03T00:38:55.520Z,96220.88
2022-08-03T00:41:22.883Z,96227.25
2022-08-03T00:43:49.959Z,96216.25
2022-08-03T00:46:21.367Z,96220.88
2022-08-03T00:48:52.379Z,96220.41
2022-08-03T00:51:20.158Z,96221.94
2022-08-03T00:53:46.867Z,96217.28
2022-08-03T00:56:15.374Z,96215.44
2022-08-03T00:58:44.777Z,96218.91
2022-08-03T01:01:12.655Z,96219.81
2022-08-03T01:03:39.887Z,96221.84
2022-08-03T01:06:25.582Z,96219.06
2022-08-03T01:09:40.951Z,96212.56
2022-08-03T01:12:18.959Z,96219.88
2022-08-03T01:15:10.126Z,96211.53
2022-08-03T01:17:51.519Z,96206.69
2022-08-03T01:20:22.251Z,96211.19
2022-08-03T01:23:07.872Z,96203.88
2022-08-03T01:25:59.866Z,96207.94
2022-08-03T01:28:58.823Z,96212.72
2022-08-03T01:31:32.550Z,96210.00
2022-08-03T01:34:03.933Z,96209.84
2022-08-03T01:36:51.300Z,96211.38
2022-08-03T01:39:43.127Z,96218.47
2022-08-03T01:42:12.843Z,96211.28
2022-08-03T01:44:41.799Z,96209.53
2022-08-03T01:47:10.283Z,96211.59
2022-08-03T01:49:40.911Z,96208.94
2022-08-03T01:52:07.946Z,96211.03
2022-08-03T01:54:37.748Z,96213.03
2022-08-03T01:57:05.450Z,96201.81
2022-08-03T01:59:35.218Z,96207.91
2022-08-03T02:02:25.298Z,96211.16
2022-08-03T02:04:54.399Z,96210.22
2022-08-03T02:07:21.313Z,96209.50
2022-08-03T02:09:52.743Z,96208.84
2022-08-03T02:12:22.474Z,96211.59
2022-08-03T02:14:50.172Z,96209.41
2022-08-03T02:17:16.975Z,96211.13
2022-08-03T02:19:44.634Z,96206.25
2022-08-03T02:22:14.303Z,96211.34
2022-08-03T02:24:41.468Z,96210.44
2022-08-03T02:27:19.924Z,96208.75
2022-08-03T02:29:51.096Z,96208.59
2022-08-03T02:32:24.234Z,96204.63
2022-08-03T02:34:53.023Z,96207.03
2022-08-03T02:37:21.663Z,96204.59
2022-08-03T02:39:53.385Z,96199.06
2022-08-03T02:42:22.188Z,96201.47
2022-08-03T02:44:51.552Z,96199.34
2022-08-03T02:47:21.491Z,96196.91
2022-08-03T02:49:52.322Z,96203.03
2022-08-03T02:52:26.711Z,96196.44
2022-08-03T02:54:59.071Z,96198.31
2022-08-03T02:57:30.695Z,96203.94
2022-08-03T02:59:58.997Z,96193.78
2022-08-03T03:02:26.722Z,96200.81
2022-08-03T03:05:52.191Z,96200.81
2022-08-03T03:07:52.879Z,96190.94
2022-08-03T03:10:23.279Z,96198.19
2022-08-03T03:12:56.709Z,96193.75
2022-08-03T03:15:28.400Z,96193.31
2022-08-03T03:17:56.925Z,96194.94
2022-08-03T03:20:29.516Z,96200.09
2022-08-03T03:23:00.305Z,96196.28
2022-08-03T03:25:30.772Z,96204.97
2022-08-03T03:27:58.275Z,96196.50
2022-08-03T03:30:26.469Z,96201.34
2022-08-03T03:32:54.397Z,96200.53
2022-08-03T03:35:21.495Z,96207.25
2022-08-03T03:37:48.265Z,96195.06
2022-08-03T03:40:15.284Z,96198.84
2022-08-03T03:42:44.339Z,96195.53
2022-08-03T03:45:12.175Z,96193.31
2022-08-03T03:47:38.960Z,96188.31
2022-08-03T03:50:07.265Z,96196.34
2022-08-03T03:52:34.699Z,96197.44
2022-08-03T03:55:01.871Z,96194.34
2022-08-03T03:57:29.607Z,96201.13
2022-08-03T03:59:59.338Z,96198.91
2022-08-03T04:02:27.792Z,96202.59
2022-08-03T04:05:13.075Z,96204.38
2022-08-03T04:08:16.747Z,96208.66
2022-08-03T04:11:00.638Z,96203.19
2022-08-03T04:13:44.221Z,96199.88
2022-08-03T04:16:14.000Z,96199.56
2022-08-03T04:18:42.425Z,96198.91
2022-08-03T04:21:13.157Z,96208.88
2022-08-03T04:23:45.297Z,96203.03
2022-08-03T04:26:15.237Z,96211.81
2022-08-03T04:28:46.139Z,96204.22
2022-08-03T04:31:14.743Z,96212.41
2022-08-03T04:33:43.767Z,96210.84
2022-08-03T04:36:14.790Z,96212.53
2022-08-03T04:38:56.149Z,96213.56
2022-08-03T04:41:25.511Z,96215.41
2022-08-03T04:43:54.987Z,96219.31
2022-08-03T04:46:23.875Z,96217.66
2022-08-03T04:48:51.454Z,96213.41
2022-08-03T04:51:18.579Z,96222.75
2022-08-03T04:53:45.556Z,96218.53
2022-08-03T04:56:12.561Z,96220.00
2022-08-03T04:58:39.457Z,96224.22
2022-08-03T05:01:06.249Z,96226.06
2022-08-03T05:03:33.106Z,96221.78
2022-08-03T05:06:09.953Z,96228.25
2022-08-03T05:08:45.942Z,96225.78
2022-08-03T05:11:15.828Z,96220.59
2022-08-03T05:13:42.934Z,96226.72
2022-08-03T05:16:09.715Z,96225.03
2022-08-03T05:18:36.372Z,96230.47
2022-08-03T05:21:03.764Z,96232.84
2022-08-03T05:23:30.890Z,96228.25
2022-08-03T05:25:57.841Z,96232.13
2022-08-03T05:28:24.704Z,96225.78
2022-08-03T05:30:51.444Z,96233.06
2022-08-03T05:33:18.318Z,96229.06
2022-08-03T05:36:01.934Z,96226.78
2022-08-03T05:38:34.970Z,96223.81
2022-08-03T05:41:22.000Z,96223.72
2022-08-03T05:43:52.132Z,96233.19
2022-08-03T05:46:19.101Z,96225.38
2022-08-03T05:48:45.858Z,96225.03
2022-08-03T05:51:13.763Z,96233.13
2022-08-03T05:53:42.337Z,96224.84
2022-08-03T05:56:14.730Z,96229.03
2022-08-03T05:58:47.498Z,96226.66
2022-08-03T06:01:16.473Z,96233.00
2022-08-03T06:03:43.226Z,96233.94
2022-08-03T06:06:11.703Z,96230.16
2022-08-03T06:08:39.028Z,96234.09
2022-08-03T06:11:05.902Z,96228.63
2022-08-03T06:13:32.662Z,96238.72
2022-08-03T06:15:59.432Z,96234.88
2022-08-03T06:18:26.470Z,96240.91
2022-08-03T06:20:54.063Z,96238.72
2022-08-03T06:23:26.291Z,96242.28
2022-08-03T06:26:10.127Z,96236.31
2022-08-03T06:28:52.893Z,96239.09
2022-08-03T06:31:24.044Z,96240.22
2022-08-03T06:34:32.434Z,96241.50
2022-08-03T06:36:38.034Z,96246.59
2022-08-03T06:39:04.806Z,96240.81
2022-08-03T06:41:38.008Z,96240.91
2022-08-03T06:44:08.421Z,96241.91
2022-08-03T06:46:37.053Z,96232.25
2022-08-03T06:49:03.888Z,96240.66
2022-08-03T06:52:05.971Z,96239.75
2022-08-03T06:54:18.277Z,96240.22
2022-08-03T06:56:44.967Z,96240.31
2022-08-03T07:00:06.594Z,96244.66
2022-08-03T07:01:58.468Z,96237.22
2022-08-03T07:04:25.190Z,96243.59
2022-08-03T07:06:52.518Z,96244.22
2022-08-03T07:09:19.219Z,96242.69
2022-08-03T07:11:45.915Z,96238.06
2022-08-03T07:14:12.653Z,96240.06
2022-08-03T07:16:39.487Z,96242.38
2022-08-03T07:19:06.193Z,96239.78
2022-08-03T07:21:32.843Z,96240.41
2022-08-03T07:23:59.540Z,96242.66
2022-08-03T07:26:26.246Z,96238.63
2022-08-03T07:28:52.943Z,96241.34
2022-08-03T07:31:19.698Z,96232.44
2022-08-03T07:33:46.479Z,96236.44
2022-08-03T07:36:13.497Z,96238.25
2022-08-03T07:38:40.437Z,96239.00
2022-08-03T07:41:07.152Z,96232.97
2022-08-03T07:43:33.997Z,96225.06
2022-08-03T07:46:00.866Z,96226.09
2022-08-03T07:48:27.633Z,96232.13
2022-08-03T07:50:54.304Z,96226.81
2022-08-03T07:53:21.122Z,96228.53
2022-08-03T07:55:47.819Z,96229.06
2022-08-03T07:58:21.918Z,96228.75
2022-08-03T08:00:53.754Z,96222.44
2022-08-03T08:03:22.009Z,96229.16
2022-08-03T08:05:49.481Z,96227.50
2022-08-03T08:08:16.283Z,96225.84
2022-08-03T08:10:43.241Z,96225.97
2022-08-03T08:13:25.518Z,96226.34
2022-08-03T08:15:52.451Z,96233.00
2022-08-03T08:18:19.208Z,96227.06
2022-08-03T08:20:46.027Z,96227.78
2022-08-03T08:23:38.664Z,96222.13
2022-08-03T08:25:59.495Z,96229.63
2022-08-03T08:28:32.875Z,96222.44
2022-08-03T08:31:00.683Z,96215.38
2022-08-03T08:33:42.236Z,96222.34
2022-08-03T08:36:15.716Z,96215.50
2022-08-03T08:38:44.701Z,96217.16
2022-08-03T08:41:13.285Z,96222.31
2022-08-03T08:43:40.679Z,96214.78
2022-08-03T08:46:08.574Z,96212.16
2022-08-03T08:48:40.526Z,96210.34
2022-08-03T08:51:09.768Z,96215.97
2022-08-03T08:53:38.499Z,96221.09
2022-08-03T08:56:07.186Z,96215.78
2022-08-03T08:58:42.005Z,96214.53
2022-08-03T09:01:08.818Z,96209.69
2022-08-03T09:03:35.695Z,96223.06
2022-08-03T09:06:03.388Z,96221.41
2022-08-03T09:08:31.596Z,96219.44
2022-08-03T09:10:58.659Z,96218.47
2022-08-03T09:13:25.753Z,96222.13
2022-08-03T09:16:12.234Z,96214.41
2022-08-03T09:18:40.077Z,96213.03
2022-08-03T09:21:36.013Z,96214.84
2022-08-03T09:24:06.304Z,96213.91
2022-08-03T09:26:37.371Z,96215.84
2022-08-03T09:29:13.782Z,96207.91
2022-08-03T09:31:46.894Z,96216.88
2022-08-03T09:34:18.584Z,96217.09
2022-08-03T09:36:49.760Z,96207.50
2022-08-03T09:39:17.657Z,96205.47
2022-08-03T09:42:03.973Z,96212.53
2022-08-03T09:44:37.935Z,96210.00
2022-08-03T09:47:06.111Z,96213.84
2022-08-03T09:49:33.381Z,96207.13
2022-08-03T09:52:33.235Z,96204.88
2022-08-03T09:55:03.027Z,96208.72
2022-08-03T09:57:32.505Z,96208.81
2022-08-03T10:00:14.379Z,96203.09
2022-08-03T10:02:43.895Z,96200.88
2022-08-03T10:05:17.761Z,96201.38
2022-08-03T10:07:50.034Z,96194.16
2022-08-03T10:10:30.727Z,96199.09
2022-08-03T10:13:00.292Z,96191.50
2022-08-03T10:16:23.181Z,96180.78
2022-08-03T10:18:14.762Z,96183.59
2022-08-03T10:20:50.123Z,96191.00
2022-08-03T10:23:18.976Z,96187.00
2022-08-03T10:25:55.019Z,96177.84
2022-08-03T10:28:22.487Z,96177.63
2022-08-03T10:30:51.691Z,96175.16
2022-08-03T10:33:49.804Z,96178.97
2022-08-03T10:36:09.617Z,96174.59
2022-08-03T10:38:43.341Z,96168.56
2022-08-03T10:41:11.393Z,96171.81
2022-08-03T10:43:49.243Z,96168.59
2022-08-03T10:46:17.928Z,96177.19
2022-08-03T10:48:45.746Z,96161.19
2022-08-03T10:51:13.396Z,96162.53
2022-08-03T10:53:50.151Z,96160.53
2022-08-03T10:56:52.569Z,96160.81
2022-08-03T10:59:45.900Z,96160.69
2022-08-03T11:02:14.704Z,96157.34
2022-08-03T11:04:42.144Z,96150.88
2022-08-03T11:07:18.058Z,96150.09
2022-08-03T11:09:49.978Z,96149.38
2022-08-03T11:12:32.151Z,96156.13
2022-08-03T11:15:08.748Z,96148.91
2022-08-03T11:17:46.285Z,96154.31
2022-08-03T11:20:52.212Z,96142.84
2022-08-03T11:24:04.408Z,96136.59
2022-08-03T11:26:33.703Z,96145.31
2022-08-03T11:29:31.688Z,96138.72
2022-08-03T11:31:58.779Z,96131.59
2022-08-03T11:34:26.251Z,96139.66
2022-08-03T11:37:23.295Z,96134.31
2022-08-03T11:39:54.860Z,96136.84
2022-08-03T11:42:24.412Z,96132.59
2022-08-03T11:44:52.680Z,96131.47
2022-08-03T11:47:21.198Z,96137.69
2022-08-03T11:49:48.972Z,96137.31
2022-08-03T11:52:17.706Z,96127.91
2022-08-03T11:54:44.645Z,96126.63
2022-08-03T11:57:11.745Z,96132.66
2022-08-03T11:59:38.938Z,96138.16
2022-08-03T12:02:08.091Z,96127.41
2022-08-03T12:04:58.409Z,96130.69
2022-08-03T12:08:03.061Z,96128.47
2022-08-03T12:10:15.730Z,96121.03
2022-08-03T12:12:46.830Z,96126.16
2022-08-03T12:15:14.274Z,96119.66
2022-08-03T12:17:41.733Z,96116.25
2022-08-03T12:20:10.495Z,96112.38
2022-08-03T12:22:39.454Z,96115.88
2022-08-03T12:25:09.972Z,96110.53
2022-08-03T12:27:37.163Z,96108.94
2022-08-03T12:30:04.958Z,96107.56
2022-08-03T12:32:31.772Z,96101.91
2022-08-03T12:35:01.521Z,96101.56
2022-08-03T12:37:29.090Z,96089.22
2022-08-03T12:40:07.944Z,96099.09
2022-08-03T12:42:38.401Z,96102.25
2022-08-03T12:45:24.744Z,96090.47
2022-08-03T12:48:00.123Z,96089.34
2022-08-03T12:50:32.126Z,96086.75
2022-08-03T12:53:00.635Z,96087.63
2022-08-03T12:55:57.043Z,96099.53
2022-08-03T12:58:36.110Z,96086.06
2022-08-03T13:01:09.450Z,96089.00
2022-08-03T13:03:50.221Z,96088.38
2022-08-03T13:06:24.880Z,96090.13
2022-08-03T13:09:08.060Z,96090.63
2022-08-03T13:11:57.375Z,96084.50
2022-08-03T13:14:23.639Z,96081.63
2022-08-03T13:16:50.577Z,96082.09
2022-08-03T13:19:17.601Z,96076.66
2022-08-03T13:21:53.614Z,96078.88
2022-08-03T13:24:32.823Z,96077.78
2022-08-03T13:27:00.640Z,96086.56
2022-08-03T13:29:47.406Z,96083.19
2022-08-03T13:32:14.512Z,96074.22
2022-08-03T13:34:41.319Z,96077.53
2022-08-03T13:37:19.425Z,96079.44
2022-08-03T13:39:57.724Z,96075.81
2022-08-03T13:42:27.029Z,96068.91
2022-08-03T13:44:53.954Z,96070.66
2022-08-03T13:47:21.043Z,96073.03
2022-08-03T13:50:00.542Z,96071.59
2022-08-03T13:52:31.998Z,96069.81
2022-08-03T13:54:58.966Z,96065.00
2022-08-03T13:58:11.350Z,96062.78
2022-08-03T14:00:13.556Z,96057.81
2022-08-03T14:02:56.172Z,96055.38
2022-08-03T14:05:25.239Z,96048.56
2022-08-03T14:07:51.908Z,96052.22
2022-08-03T14:10:23.515Z,96050.44
2022-08-03T14:12:50.325Z,96048.50
2022-08-03T14:15:17.167Z,96041.31
2022-08-03T14:17:49.863Z,96049.63
2022-08-03T14:20:37.303Z,96048.94
2022-08-03T14:23:03.669Z,96044.06
2022-08-03T14:25:31.702Z,96046.06
2022-08-03T14:28:10.476Z,96038.06
2022-08-03T14:30:37.316Z,96042.81
2022-08-03T14:33:04.041Z,96038.13
2022-08-03T14:35:30.756Z,96043.19
2022-08-03T14:37:57.386Z,96037.59
2022-08-03T14:40:24.165Z,96037.09
2022-08-03T14:42:51.048Z,96031.69
2022-08-03T14:45:20.483Z,96037.38
2022-08-03T14:50:34.710Z,96031.50
2022-08-03T14:50:42.859Z,96023.31
2022-08-03T14:53:12.314Z,96025.66
2022-08-03T14:55:49.845Z,96027.09
2022-08-03T14:58:27.571Z,96007.50
2022-08-03T15:00:55.572Z,96020.31
2022-08-03T15:03:26.141Z,96024.13
2022-08-03T15:05:54.107Z,96025.97
2022-08-03T15:08:22.498Z,96022.59
2022-08-03T15:10:49.837Z,96015.75
2022-08-03T15:13:17.972Z,96014.66
2022-08-03T15:15:44.677Z,96014.97
2022-08-03T15:18:11.819Z,96011.94
2022-08-03T15:20:44.934Z,96008.75
2022-08-03T15:23:13.458Z,96008.75
2022-08-03T15:26:29.453Z,96006.50
2022-08-03T15:28:26.883Z,96008.13
2022-08-03T15:30:53.841Z,96007.03
2022-08-03T15:33:20.690Z,96008.94
2022-08-03T15:35:47.833Z,96002.53
2022-08-03T15:38:14.890Z,96005.22
2022-08-03T15:40:41.923Z,96003.94
2022-08-03T15:43:08.766Z,95994.63
2022-08-03T15:45:36.511Z,95997.28
2022-08-03T15:48:07.307Z,95992.75
2022-08-03T15:50:34.576Z,95988.94
2022-08-03T15:53:01.228Z,95993.34
2022-08-03T15:55:27.981Z,95992.97
2022-08-03T15:59:09.330Z,95991.56
2022-08-03T16:00:43.615Z,95982.94
2022-08-03T16:03:10.722Z,95982.63
2022-08-03T16:05:37.500Z,95982.72
2022-08-03T16:08:07.015Z,95987.75
2022-08-03T16:10:35.922Z,95976.03
2022-08-03T16:13:02.751Z,95989.19
2022-08-03T16:15:29.517Z,95982.00
2022-08-03T16:17:57.218Z,95974.19
2022-08-03T16:20:31.656Z,95980.53
2022-08-03T16:23:10.530Z,95978.06
2022-08-03T16:25:42.738Z,95973.56
2022-08-03T16:28:17.150Z,95972.59
2022-08-03T16:30:46.020Z,95974.47
2022-08-03T16:33:16.846Z,95977.50
2022-08-03T16:35:45.915Z,95977.50
2022-08-03T16:38:18.143Z,95980.19
2022-08-03T16:40:47.236Z,95984.78
2022-08-03T16:43:18.928Z,95982.72
2022-08-03T16:45:49.107Z,95987.03
2022-08-03T16:48:17.022Z,95981.19
2022-08-03T16:50:44.539Z,95984.22
2022-08-03T16:53:16.746Z,95986.41
2022-08-03T16:55:53.463Z,95983.69
2022-08-03T16:58:24.445Z,95984.59
2022-08-03T17:01:21.116Z,95984.41
2022-08-03T17:04:02.564Z,95985.81
2022-08-03T17:06:34.314Z,95982.78
2022-08-03T17:09:03.113Z,95989.03
2022-08-03T17:11:33.074Z,95991.22
2022-08-03T17:14:00.345Z,95989.88
2022-08-03T17:16:27.533Z,95989.88
2022-08-03T17:19:02.007Z,95990.47
2022-08-03T17:21:32.283Z,95988.59
2022-08-03T17:24:19.870Z,95990.59
2022-08-03T17:26:49.848Z,95987.06
2022-08-03T17:29:23.220Z,95990.38
2022-08-03T17:31:53.080Z,96000.69
2022-08-03T17:34:21.046Z,95999.88
2022-08-03T17:37:27.171Z,96000.19
2022-08-03T17:39:58.220Z,95991.34
2022-08-03T17:42:39.120Z,96001.97
2022-08-03T17:45:07.262Z,95996.16
2022-08-03T17:47:41.951Z,96004.94
2022-08-03T17:50:24.724Z,96003.50
2022-08-03T17:53:06.802Z,95998.75
2022-08-03T17:55:57.427Z,95995.00
2022-08-03T17:58:55.115Z,95996.72
2022-08-03T18:02:02.189Z,96006.22
2022-08-03T18:04:37.469Z,96008.97
2022-08-03T18:07:12.558Z,96008.47
2022-08-03T18:10:04.392Z,96016.88
2022-08-03T18:12:40.394Z,96014.25
2022-08-03T18:15:21.429Z,96011.09
2022-08-03T18:17:55.040Z,96015.19
2022-08-03T18:20:34.013Z,96024.16
2022-08-03T18:23:04.682Z,96022.25
2022-08-03T18:25:45.519Z,96019.38
2022-08-03T18:28:18.765Z,96024.31
2022-08-03T18:30:53.641Z,96028.72
2022-08-03T18:34:17.446Z,96028.19
2022-08-03T18:36:21.653Z,96025.34
2022-08-03T18:38:51.832Z,96024.16
2022-08-03T18:41:32.840Z,96018.03
2022-08-03T18:44:06.650Z,96015.50
2022-08-03T18:47:07.541Z,96017.44
2022-08-03T18:49:57.439Z,96020.97
2022-08-03T18:52:45.957Z,96020.81
2022-08-03T18:55:35.517Z,96016.91
2022-08-03T18:58:15.883Z,96019.69
2022-08-03T19:01:15.264Z,96019.81
2022-08-03T19:04:12.617Z,96019.13
2022-08-03T19:06:48.283Z,96012.25
2022-08-03T19:09:28.081Z,96021.44
2022-08-03T19:12:12.504Z,96030.94
2022-08-03T19:14:45.879Z,96022.41
2022-08-03T19:17:14.150Z,96026.75
2022-08-03T19:19:50.776Z,96038.38
2022-08-03T19:22:21.473Z,96028.19
2022-08-03T19:24:51.932Z,96029.31
2022-08-03T19:27:21.306Z,96029.03
2022-08-03T19:29:59.913Z,96032.84
2022-08-03T19:32:29.616Z,96026.66
2022-08-03T19:34:59.379Z,96032.06
2022-08-03T19:37:38.059Z,96027.25
2022-08-03T19:40:10.205Z,96028.34
2022-08-03T19:42:40.924Z,96027.25
2022-08-03T19:45:13.829Z,96030.47
2022-08-03T19:48:09.708Z,96028.88
2022-08-03T19:50:37.871Z,96037.16
2022-08-03T19:53:13.233Z,96032.38
2022-08-03T19:55:47.500Z,96026.44
2022-08-03T19:58:17.787Z,96026.19
2022-08-03T20:00:55.676Z,96024.84
2022-08-03T20:03:24.822Z,96024.31
2022-08-03T20:05:54.209Z,96022.94
2022-08-03T20:08:22.171Z,96018.13
2022-08-03T20:10:49.725Z,96019.44
2022-08-03T20:13:19.471Z,96021.59
2022-08-03T20:15:46.538Z,96020.81
2022-08-03T20:18:16.922Z,96027.25
2022-08-03T20:20:48.256Z,96033.16
2022-08-03T20:23:19.851Z,96032.81
2022-08-03T20:25:58.590Z,96026.94
2022-08-03T20:28:50.519Z,96032.53
2022-08-03T20:31:18.912Z,96028.25
2022-08-03T20:33:49.018Z,96026.34
2022-08-03T20:36:17.937Z,96028.78
2022-08-03T20:38:47.386Z,96030.13
2022-08-03T20:41:19.006Z,96027.44
2022-08-03T20:43:46.453Z,96025.28
2022-08-03T20:49:06.424Z,96024.22
2022-08-03T20:51:50.100Z,96028.25
2022-08-03T20:54:30.547Z,96026.38
2022-08-03T20:57:00.523Z,96024.50
2022-08-03T20:59:47.004Z,96018.88
2022-08-03T21:02:29.015Z,96022.06
2022-08-03T21:04:58.274Z,96027.41
2022-08-03T21:07:45.966Z,96027.16
2022-08-03T21:10:15.636Z,96032.00
2022-08-03T21:13:14.055Z,96025.53
2022-08-03T21:13:15.109Z,96027.69
2022-08-03T21:16:12.410Z,96031.69
2022-08-03T21:18:37.429Z,96031.41
2022-08-03T21:21:06.337Z,96030.91
2022-08-03T21:23:48.146Z,96036.25
2022-08-03T21:26:18.085Z,96031.41
2022-08-03T21:28:49.112Z,96027.66
2022-08-03T21:31:24.248Z,96038.16
2022-08-03T21:33:57.512Z,96035.44
2022-08-03T21:36:27.877Z,96035.72
2022-08-03T21:38:57.471Z,96029.53
2022-08-03T21:41:30.613Z,96028.19
2022-08-03T21:43:58.136Z,96031.38
2022-08-03T21:46:26.673Z,96026.00
2022-08-03T21:50:05.702Z,96034.56
2022-08-03T21:51:50.634Z,96029.75
2022-08-03T21:54:20.803Z,96029.97
2022-08-03T21:56:51.466Z,96020.81
2022-08-03T21:59:20.319Z,96028.53
2022-08-03T22:01:48.826Z,96026.06
2022-08-03T22:04:50.267Z,96030.63
2022-08-03T22:07:08.611Z,96036.00
2022-08-03T22:09:37.067Z,96036.28
2022-08-03T22:12:05.707Z,96037.06
2022-08-03T22:14:33.177Z,96037.91
2022-08-03T22:17:06.258Z,96032.50
2022-08-03T22:19:33.081Z,96030.94
2022-08-03T22:22:02.044Z,96029.84
2022-08-03T22:24:32.075Z,96031.19
2022-08-03T22:27:20.926Z,96033.56
2022-08-03T22:29:50.674Z,96033.81
2022-08-03T22:32:17.428Z,96039.69
2022-08-03T22:34:46.829Z,96039.69
2022-08-03T22:37:16.238Z,96042.09
2022-08-03T22:39:44.721Z,96045.59
2022-08-03T22:42:12.011Z,96037.00
2022-08-03T22:44:39.333Z,96043.94
2022-08-03T22:47:06.300Z,96041.53
2022-08-03T22:49:35.562Z,96050.63
2022-08-03T22:52:02.368Z,96050.88
2022-08-03T22:54:31.807Z,96051.16
2022-08-03T22:56:59.255Z,96062.09
2022-08-03T22:59:39.260Z,96059.97
2022-08-03T23:02:21.233Z,96053.28
2022-08-03T23:04:53.825Z,96057.75
2022-08-03T23:07:28.720Z,96057.47
2022-08-03T23:09:56.589Z,96053.19
2022-08-03T23:12:23.828Z,96059.59
2022-08-03T23:14:57.788Z,96055.56
2022-08-03T23:17:26.973Z,96050.69
2022-08-03T23:19:56.086Z,96056.00
2022-08-03T23:22:30.378Z,96050.63
2022-08-03T23:24:59.010Z,96050.63
2022-08-03T23:27:27.887Z,96047.97
2022-08-03T23:29:58.441Z,96039.16
2022-08-03T23:32:25.173Z,96049.56
2022-08-03T23:35:14.274Z,96048.78
2022-08-03T23:38:12.319Z,96045.28
2022-08-03T23:40:31.363Z,96050.63
2022-08-03T23:42:59.519Z,96043.66
2022-08-03T23:45:28.125Z,96053.00
2022-08-03T23:47:55.168Z,96046.59
2022-08-03T23:50:21.919Z,96041.47
2022-08-03T23:53:08.119Z,96049.25
2022-08-03T23:55:53.180Z,96047.09
2022-08-03T23:58:47.424Z,96033.41
